Time;durP1;ratioP1;P1;durP2;ratioP2;P2;SDS_P1;SDS_P2;PMS_P1;PMS_P2;Temp;Humidity;BMP_temperature;BMP_pressure;BME280_temperature;BME280_humidity;BME280_pressure;Samples;Min_cycle;Max_cycle;Signal;HPM_P1;HPM_P2
2021/01/06 00:02:05;;;;;;;0.20;0.20;;;;;;;;;;4897458;29;20456;-26
2021/01/06 00:04:30;;;;;;;0.10;0.10;;;;;;;;;;4897607;29;20037;-26
2021/01/06 00:06:56;;;;;;;1.27;0.10;;;;;;;;;;4897580;29;20084;-26
2021/01/06 00:09:22;;;;;;;1.52;0.10;;;;;;;;;;4897962;29;20464;-26
2021/01/06 00:11:47;;;;;;;0.10;0.10;;;;;;;;;;4880820;29;20032;-25
2021/01/06 00:14:14;;;;;;;0.30;0.20;;;;;;;;;;4897595;29;20383;-25
2021/01/06 00:16:39;;;;;;;0.93;0.22;;;;;;;;;;4897800;29;20032;-25
2021/01/06 00:19:05;;;;;;;0.77;0.30;;;;;;;;;;4880558;29;20377;-25
2021/01/06 00:21:30;;;;;;;0.25;0.20;;;;;;;;;;4897622;29;20124;-26
2021/01/06 00:23:55;;;;;;;0.10;0.10;;;;;;;;;;4880622;29;20036;-25
2021/01/06 00:26:21;;;;;;;0.35;0.20;;;;;;;;;;4880550;29;20037;-28
2021/01/06 00:28:46;;;;;;;0.20;0.20;;;;;;;;;;4880439;29;20084;-27
2021/01/06 00:31:12;;;;;;;0.93;0.20;;;;;;;;;;4880523;29;20036;-25
2021/01/06 00:33:37;;;;;;;0.10;0.10;;;;;;;;;;4897478;29;20410;-25
2021/01/06 00:36:05;;;;;;;0.20;0.20;;;;;;;;;;4897486;29;20420;-26
2021/01/06 00:38:31;;;;;;;0.22;0.10;;;;;;;;;;4897215;29;20028;-25
2021/01/06 00:40:57;;;;;;;2.50;0.80;;;;;;;;;;4897314;29;20044;-26
2021/01/06 00:43:22;;;;;;;0.50;0.20;;;;;;;;;;4897267;29;20032;-25
2021/01/06 00:45:48;;;;;;;0.30;0.20;;;;;;;;;;4897420;29;20033;-27
2021/01/06 00:48:14;;;;;;;0.10;0.10;;;;;;;;;;4880180;29;20052;-26
2021/01/06 00:50:40;;;;;;;0.70;0.15;;;;;;;;;;4864982;29;20530;-26
2021/01/06 00:53:07;;;;;;;0.10;0.10;;;;;;;;;;4880255;29;20132;-22
2021/01/06 00:55:36;;;;;;;0.20;0.13;;;;;;;;;;4880329;29;20403;-22
2021/01/06 00:58:03;;;;;;;0.10;0.10;;;;;;;;;;4880182;29;20032;-22
2021/01/06 01:00:29;;;;;;;0.35;0.20;;;;;;;;;;4897082;29;20044;-23
2021/01/06 01:02:58;;;;;;;0.10;0.10;;;;;;;;;;4880049;29;20092;-23
2021/01/06 01:05:25;;;;;;;0.17;0.10;;;;;;;;;;4880402;29;20441;-23
2021/01/06 01:07:50;;;;;;;0.10;0.10;;;;;;;;;;4880285;29;20080;-22
2021/01/06 01:10:34;;;;;;;2.30;0.25;;;;;;;;;;4896900;29;20047;-23
2021/01/06 01:12:59;;;;;;;;;;;;;;;;;;4897339;29;20109;-22
2021/01/06 01:15:25;;;;;;;1.20;0.20;;;;;;;;;;4896920;29;19919;-23
2021/01/06 01:17:51;;;;;;;0.25;0.10;;;;;;;;;;4882635;29;20029;-23
2021/01/06 01:20:17;;;;;;;0.32;0.20;;;;;;;;;;4900777;29;20041;-22
2021/01/06 01:22:43;;;;;;;0.20;0.20;;;;;;;;;;4900992;29;20040;-22
2021/01/06 01:25:08;;;;;;;0.57;0.20;;;;;;;;;;4900500;29;20506;-22
2021/01/06 01:27:34;;;;;;;0.57;0.20;;;;;;;;;;4900405;29;20048;-22
2021/01/06 01:29:59;;;;;;;0.15;0.15;;;;;;;;;;4883749;29;20027;-23
2021/01/06 01:32:24;;;;;;;0.95;0.10;;;;;;;;;;4900374;29;20141;-22
2021/01/06 01:34:50;;;;;;;1.85;0.40;;;;;;;;;;4883577;29;20037;-22
2021/01/06 01:37:15;;;;;;;0.38;0.28;;;;;;;;;;4883428;29;20127;-22
2021/01/06 01:39:40;;;;;;;1.55;0.30;;;;;;;;;;4900250;29;20043;-23
2021/01/06 01:42:06;;;;;;;0.60;0.22;;;;;;;;;;4883393;29;20032;-24
2021/01/06 01:44:31;;;;;;;3.08;0.50;;;;;;;;;;4900248;29;20084;-24
2021/01/06 01:47:04;;;;;;;4.38;0.68;;;;;;;;;;4900178;29;20096;-23
2021/01/06 01:49:29;;;;;;;;;;;;;;;;;;4900507;29;20036;-23
2021/01/06 01:51:57;;;;;;;1.63;0.52;;;;;;;;;;4900048;29;19907;-24
2021/01/06 01:54:25;;;;;;;3.30;0.40;;;;;;;;;;4883202;29;20369;-23
2021/01/06 01:56:53;;;;;;;0.75;0.43;;;;;;;;;;4900334;29;20037;-23
2021/01/06 01:59:38;;;;;;;0.68;0.28;;;;;;;;;;4900109;29;20079;-23
2021/01/06 02:02:10;;;;;;;1.33;0.38;;;;;;;;;;4882930;29;20060;-23
2021/01/06 02:04:48;;;;;;;4.50;1.60;;;;;;;;;;4883117;29;20075;-23
2021/01/06 02:07:19;;;;;;;5.60;1.98;;;;;;;;;;4899769;29;20539;-24
2021/01/06 02:09:52;;;;;;;2.40;0.70;;;;;;;;;;4899751;29;20084;-23
2021/01/06 02:12:22;;;;;;;2.78;0.50;;;;;;;;;;4899932;29;20039;-23
2021/01/06 02:15:10;;;;;;;3.97;2.05;;;;;;;;;;4899605;29;20036;-23
2021/01/06 02:17:35;;;;;;;0.82;0.30;;;;;;;;;;4875414;29;20059;-23
2021/01/06 02:20:01;;;;;;;1.20;0.40;;;;;;;;;;4899469;29;20029;-23
2021/01/06 02:22:26;;;;;;;1.95;0.93;;;;;;;;;;4899517;29;20040;-23
2021/01/06 02:24:52;;;;;;;2.38;1.15;;;;;;;;;;4899515;29;20108;-23
2021/01/06 02:27:18;;;;;;;5.97;1.48;;;;;;;;;;4899148;29;20440;-23
2021/01/06 02:29:43;;;;;;;9.40;2.50;;;;;;;;;;4899681;29;20048;-23
2021/01/06 02:32:09;;;;;;;0.47;0.30;;;;;;;;;;4899637;29;20076;-24
2021/01/06 02:34:35;;;;;;;0.35;0.35;;;;;;;;;;4882451;29;20512;-23
2021/01/06 02:37:00;;;;;;;3.38;1.48;;;;;;;;;;4899273;29;20048;-23
2021/01/06 02:39:26;;;;;;;1.40;0.43;;;;;;;;;;4899471;29;20032;-23
2021/01/06 02:41:51;;;;;;;1.65;0.80;;;;;;;;;;4899193;29;20396;-22
2021/01/06 02:44:17;;;;;;;1.50;0.38;;;;;;;;;;4899384;29;20854;-22
2021/01/06 02:46:42;;;;;;;0.60;0.35;;;;;;;;;;4899212;29;20039;-23
2021/01/06 02:49:08;;;;;;;4.60;0.40;;;;;;;;;;4898890;29;20029;-23
2021/01/06 02:51:39;;;;;;;1.02;0.28;;;;;;;;;;4899314;29;20032;-24
2021/01/06 02:54:06;;;;;;;0.68;0.30;;;;;;;;;;4898864;29;20119;-23
2021/01/06 02:56:32;;;;;;;0.82;0.30;;;;;;;;;;4899035;29;20033;-22
2021/01/06 02:58:59;;;;;;;1.42;0.40;;;;;;;;;;4898864;29;20040;-24
2021/01/06 03:01:26;;;;;;;0.70;0.20;;;;;;;;;;4898837;29;20076;-23
2021/01/06 03:03:53;;;;;;;0.82;0.35;;;;;;;;;;4898852;29;20040;-22
2021/01/06 03:06:31;;;;;;;2.42;0.63;;;;;;;;;;4898768;29;20036;-22
2021/01/06 03:08:56;;;;;;;0.60;0.30;;;;;;;;;;4898818;29;20063;-22
2021/01/06 03:11:22;;;;;;;0.47;0.30;;;;;;;;;;4898677;29;20056;-22
2021/01/06 03:13:47;;;;;;;0.20;0.20;;;;;;;;;;4898958;29;20044;-23
2021/01/06 03:16:13;;;;;;;0.88;0.82;;;;;;;;;;4898763;29;20033;-23
2021/01/06 03:18:38;;;;;;;1.05;0.17;;;;;;;;;;4898488;29;20021;-22
2021/01/06 03:21:05;;;;;;;1.00;0.60;;;;;;;;;;4898660;29;20115;-23
2021/01/06 03:23:33;;;;;;;0.75;0.20;;;;;;;;;;4898800;29;20059;-23
2021/01/06 03:25:59;;;;;;;0.52;0.30;;;;;;;;;;4897504;29;20044;-23
2021/01/06 03:28:26;;;;;;;0.43;0.32;;;;;;;;;;4898129;29;20052;-22
2021/01/06 03:30:52;;;;;;;1.40;0.60;;;;;;;;;;4898458;29;20028;-22
2021/01/06 03:33:17;;;;;;;0.35;0.35;;;;;;;;;;4898442;29;20370;-23
2021/01/06 03:35:44;;;;;;;0.90;0.38;;;;;;;;;;4898480;29;20035;-22
2021/01/06 03:38:22;;;;;;;0.30;0.30;;;;;;;;;;4898109;29;20089;-22
2021/01/06 03:40:48;;;;;;;0.75;0.30;;;;;;;;;;4897604;29;20040;-22
2021/01/06 03:43:15;;;;;;;0.20;0.20;;;;;;;;;;4898305;29;20035;-23
2021/01/06 03:45:41;;;;;;;0.10;0.10;;;;;;;;;;4898084;29;20033;-23
2021/01/06 03:48:30;;;;;;;0.20;0.20;;;;;;;;;;4898005;29;20480;-22
2021/01/06 03:51:02;;;;;;;0.10;0.10;;;;;;;;;;4873725;29;20044;-22
2021/01/06 03:53:33;;;;;;;0.37;0.30;;;;;;;;;;4897879;29;20495;-23
2021/01/06 03:56:01;;;;;;;0.30;0.30;;;;;;;;;;4881310;29;20169;-23
2021/01/06 03:58:36;;;;;;;0.30;0.30;;;;;;;;;;4897816;29;20060;-24
2021/01/06 04:01:11;;;;;;;1.75;0.22;;;;;;;;;;4897633;29;20048;-22
2021/01/06 04:03:53;;;;;;;1.75;0.13;;;;;;;;;;4881131;29;20096;-22
2021/01/06 04:06:19;;;;;;;0.75;0.20;;;;;;;;;;4880830;29;20037;-23
2021/01/06 04:08:50;;;;;;;0.32;0.20;;;;;;;;;;4897685;29;20036;-22
2021/01/06 04:11:19;;;;;;;0.45;0.30;;;;;;;;;;4897808;29;20056;-23
2021/01/06 04:13:44;;;;;;;1.42;0.20;;;;;;;;;;4897828;29;20033;-22
2021/01/06 04:16:13;;;;;;;0.20;0.20;;;;;;;;;;4897436;29;20540;-22
2021/01/06 04:18:38;;;;;;;2.25;0.20;;;;;;;;;;4897567;29;20041;-23
2021/01/06 04:21:04;;;;;;;1.02;0.38;;;;;;;;;;4897341;29;20052;-23
2021/01/06 04:23:30;;;;;;;0.75;0.50;;;;;;;;;;4897714;29;20032;-22
2021/01/06 04:25:55;;;;;;;0.73;0.25;;;;;;;;;;4897445;29;20038;-22
2021/01/06 04:28:25;;;;;;;1.90;0.30;;;;;;;;;;4897186;29;20143;-22
2021/01/06 04:30:52;;;;;;;0.40;0.40;;;;;;;;;;4880684;29;20108;-23
2021/01/06 04:33:28;;;;;;;4.20;0.25;;;;;;;;;;4897321;29;20653;-22
2021/01/06 04:35:54;;;;;;;0.10;0.10;;;;;;;;;;4897334;29;20059;-22
2021/01/06 04:38:21;;;;;;;1.15;0.30;;;;;;;;;;4880730;29;20083;-23
2021/01/06 04:40:48;;;;;;;0.20;0.10;;;;;;;;;;4880383;29;20051;-23
2021/01/06 04:43:14;;;;;;;1.00;0.13;;;;;;;;;;4897437;29;20446;-23
2021/01/06 04:45:41;;;;;;;0.82;0.20;;;;;;;;;;4897482;29;20109;-23
2021/01/06 04:48:12;;;;;;;0.30;0.20;;;;;;;;;;4897370;29;20107;-23
2021/01/06 04:50:56;;;;;;;0.10;0.10;;;;;;;;;;4897385;29;20064;-22
2021/01/06 04:53:24;;;;;;;1.23;0.10;;;;;;;;;;4900577;29;20032;-22
2021/01/06 04:56:05;;;;;;;1.13;0.30;;;;;;;;;;4884306;29;20033;-23
2021/01/06 04:58:49;;;;;;;0.77;0.10;;;;;;;;;;4868528;29;20502;-21
2021/01/06 05:01:14;;;;;;;0.73;0.20;;;;;;;;;;4900905;29;20111;-23
2021/01/06 05:03:45;;;;;;;1.25;0.20;;;;;;;;;;4901048;29;20028;-23
2021/01/06 05:06:16;;;;;;;1.20;0.25;;;;;;;;;;4900822;29;20040;-22
2021/01/06 05:08:44;;;;;;;0.82;0.20;;;;;;;;;;4884039;29;20395;-22
2021/01/06 05:11:27;;;;;;;0.75;0.20;;;;;;;;;;4901005;29;20056;-22
2021/01/06 05:14:03;;;;;;;0.20;0.20;;;;;;;;;;4900839;29;20040;-22
2021/01/06 05:16:46;;;;;;;1.35;0.30;;;;;;;;;;4900733;29;20480;-23
2021/01/06 05:19:18;;;;;;;1.75;0.55;;;;;;;;;;4900573;29;20065;-23
2021/01/06 05:21:44;;;;;;;1.33;0.50;;;;;;;;;;4900647;29;20406;-22
2021/01/06 05:24:21;;;;;;;0.47;0.20;;;;;;;;;;4900855;29;20033;-22
2021/01/06 05:27:05;;;;;;;0.52;0.13;;;;;;;;;;4900780;29;20048;-22
2021/01/06 05:29:31;;;;;;;0.65;0.22;;;;;;;;;;4900478;29;20453;-23
2021/01/06 05:31:56;;;;;;;0.35;0.20;;;;;;;;;;4900814;29;20088;-23
2021/01/06 05:34:22;;;;;;;0.20;0.20;;;;;;;;;;4900571;29;20047;-22
2021/01/06 05:36:48;;;;;;;0.10;0.10;;;;;;;;;;4883684;29;20476;-23
2021/01/06 05:39:18;;;;;;;0.65;0.20;;;;;;;;;;4900540;29;20036;-23
2021/01/06 05:41:45;;;;;;;0.10;0.10;;;;;;;;;;4900163;29;20037;-22
2021/01/06 05:44:10;;;;;;;0.20;0.20;;;;;;;;;;4883694;29;20036;-22
2021/01/06 05:46:38;;;;;;;0.10;0.10;;;;;;;;;;4900484;29;20365;-23
2021/01/06 05:49:12;;;;;;;0.10;0.10;;;;;;;;;;4900345;29;20093;-23
2021/01/06 05:51:41;;;;;;;0.10;0.10;;;;;;;;;;4883331;29;20064;-23
2021/01/06 05:54:20;;;;;;;0.00;0.00;;;;;;;;;;4900001;29;20093;-23
2021/01/06 05:56:51;;;;;;;0.20;0.10;;;;;;;;;;4900196;29;20107;-22
2021/01/06 05:59:23;;;;;;;0.10;0.08;;;;;;;;;;4900125;29;20036;-23
2021/01/06 06:02:06;;;;;;;0.10;0.10;;;;;;;;;;4899844;29;20040;-23
2021/01/06 06:04:52;;;;;;;0.38;0.20;;;;;;;;;;4899701;29;20464;-22
2021/01/06 06:07:28;;;;;;;2.33;0.40;;;;;;;;;;4899570;29;20041;-22
2021/01/06 06:10:02;;;;;;;1.20;0.40;;;;;;;;;;4882957;29;20060;-22
2021/01/06 06:12:37;;;;;;;1.05;0.40;;;;;;;;;;4882826;29;20112;-22
2021/01/06 06:15:05;;;;;;;0.57;0.45;;;;;;;;;;4882745;29;20437;-23
2021/01/06 06:17:45;;;;;;;0.95;0.17;;;;;;;;;;4899811;29;20037;-23
2021/01/06 06:20:22;;;;;;;0.20;0.20;;;;;;;;;;4899591;29;20024;-23
2021/01/06 06:22:50;;;;;;;0.70;0.10;;;;;;;;;;4899862;29;20115;-22
2021/01/06 06:25:19;;;;;;;1.35;0.20;;;;;;;;;;4899536;29;20060;-23
2021/01/06 06:28:03;;;;;;;0.57;0.10;;;;;;;;;;4899463;29;20053;-23
2021/01/06 06:30:40;;;;;;;3.55;2.05;;;;;;;;;;4899722;29;20036;-23
2021/01/06 06:33:13;;;;;;;0.10;0.10;;;;;;;;;;4882516;29;20464;-23
2021/01/06 06:35:38;;;;;;;;;;;;;;;;;;4882905;29;20033;-23
2021/01/06 06:38:05;;;;;;;0.28;0.28;;;;;;;;;;4899197;29;19907;-23
2021/01/06 06:40:57;;;;;;;1.27;0.17;;;;;;;;;;4899125;29;20518;-23
2021/01/06 06:43:28;;;;;;;0.20;0.10;;;;;;;;;;4899242;29;20046;-23
2021/01/06 06:46:02;;;;;;;0.38;0.17;;;;;;;;;;4882396;29;20415;-23
2021/01/06 06:48:46;;;;;;;0.30;0.20;;;;;;;;;;4899092;29;20036;-23
2021/01/06 06:51:11;;;;;;;0.10;0.10;;;;;;;;;;4899282;29;20041;-23
2021/01/06 06:53:46;;;;;;;0.10;0.10;;;;;;;;;;4899063;29;20036;-23
2021/01/06 06:56:27;;;;;;;0.43;0.30;;;;;;;;;;4882109;29;20036;-23
2021/01/06 06:58:58;;;;;;;1.13;0.50;;;;;;;;;;4898943;29;20029;-23
2021/01/06 07:01:32;;;;;;;0.75;0.20;;;;;;;;;;4881971;29;20091;-23
2021/01/06 07:04:00;;;;;;;0.10;0.10;;;;;;;;;;4898942;29;20543;-23
2021/01/06 07:06:25;;;;;;;0.17;0.15;;;;;;;;;;4898686;29;20025;-23
2021/01/06 07:08:53;;;;;;;0.10;0.10;;;;;;;;;;4899103;29;20055;-23
2021/01/06 07:11:43;;;;;;;0.45;0.28;;;;;;;;;;4898597;29;20567;-22
2021/01/06 07:14:20;;;;;;;0.10;0.10;;;;;;;;;;4897921;29;20037;-22
2021/01/06 07:16:51;;;;;;;0.20;0.20;;;;;;;;;;4898629;29;20111;-22
2021/01/06 07:19:37;;;;;;;0.35;0.10;;;;;;;;;;4898390;29;20600;-21
2021/01/06 07:22:09;;;;;;;0.20;0.20;;;;;;;;;;4898016;29;20155;-21
2021/01/06 07:24:34;;;;;;;0.73;0.45;;;;;;;;;;4881683;29;20373;-20
2021/01/06 07:27:02;;;;;;;1.95;1.10;;;;;;;;;;4898258;29;20098;-21
2021/01/06 07:29:32;;;;;;;0.13;0.10;;;;;;;;;;4898484;29;20564;-21
2021/01/06 07:32:02;;;;;;;0.32;0.30;;;;;;;;;;4881343;29;20033;-22
2021/01/06 07:34:37;;;;;;;0.20;0.20;;;;;;;;;;4898183;29;20029;-22
2021/01/06 07:37:03;;;;;;;0.20;0.20;;;;;;;;;;4881431;29;20051;-22
2021/01/06 07:39:30;;;;;;;1.25;0.10;;;;;;;;;;4898115;29;20028;-22
2021/01/06 07:41:55;;;;;;;0.15;0.10;;;;;;;;;;4897901;29;20506;-21
2021/01/06 07:44:21;;;;;;;1.55;0.10;;;;;;;;;;4898124;29;20020;-22
2021/01/06 07:46:55;;;;;;;0.25;0.20;;;;;;;;;;4898005;29;20048;-20
2021/01/06 07:49:32;;;;;;;0.10;0.10;;;;;;;;;;4897883;29;20020;-22
2021/01/06 07:52:01;;;;;;;3.13;0.10;;;;;;;;;;4897985;29;20048;-21
2021/01/06 07:54:26;;;;;;;0.10;0.10;;;;;;;;;;4897879;29;20036;-21
2021/01/06 07:57:01;;;;;;;0.00;0.00;;;;;;;;;;4897765;29;20393;-22
2021/01/06 07:59:42;;;;;;;0.10;0.10;;;;;;;;;;4880965;29;20025;-21
2021/01/06 08:02:11;;;;;;;0.40;0.40;;;;;;;;;;4897593;29;20112;-21
2021/01/06 08:05:01;;;;;;;0.20;0.20;;;;;;;;;;4898000;29;20679;-21
2021/01/06 08:07:26;;;;;;;1.40;1.13;;;;;;;;;;4880799;29;20036;-21
2021/01/06 08:09:52;;;;;;;0.20;0.20;;;;;;;;;;4865472;29;20115;-21
2021/01/06 08:12:24;;;;;;;2.03;1.60;;;;;;;;;;4897663;29;20472;-22
2021/01/06 08:14:50;;;;;;;0.10;0.10;;;;;;;;;;4897908;29;20037;-22
2021/01/06 08:17:29;;;;;;;0.10;0.10;;;;;;;;;;4897443;29;20060;-21
2021/01/06 08:20:03;;;;;;;0.50;0.43;;;;;;;;;;4897853;29;20036;-22
2021/01/06 08:22:34;;;;;;;0.28;0.15;;;;;;;;;;4880509;29;20041;-21
2021/01/06 08:25:03;;;;;;;0.10;0.10;;;;;;;;;;4880683;29;20036;-21
2021/01/06 08:27:35;;;;;;;0.25;0.10;;;;;;;;;;4880266;29;20457;-21
2021/01/06 08:30:09;;;;;;;0.43;0.43;;;;;;;;;;4897501;29;20491;-22
2021/01/06 08:32:35;;;;;;;0.10;0.10;;;;;;;;;;4897351;29;20063;-21
2021/01/06 08:35:03;;;;;;;0.10;0.10;;;;;;;;;;4880615;29;20461;-21
2021/01/06 08:37:33;;;;;;;0.10;0.10;;;;;;;;;;4880353;29;20471;-22
2021/01/06 08:39:59;;;;;;;0.30;0.20;;;;;;;;;;4897467;29;20041;-22
2021/01/06 08:42:25;;;;;;;1.98;0.82;;;;;;;;;;4880436;29;20499;-21
2021/01/06 08:44:54;;;;;;;0.75;0.40;;;;;;;;;;4897522;29;20128;-21
2021/01/06 08:47:32;;;;;;;4.10;1.25;;;;;;;;;;4896899;29;20028;-21
2021/01/06 08:50:12;;;;;;;3.28;1.60;;;;;;;;;;4897183;29;20055;-21
2021/01/06 08:52:38;;;;;;;1.58;1.00;;;;;;;;;;4897159;29;20037;-21
2021/01/06 08:55:06;;;;;;;0.73;0.28;;;;;;;;;;4897105;29;20040;-21
2021/01/06 08:57:33;;;;;;;0.73;0.20;;;;;;;;;;4897114;29;20726;-21
2021/01/06 09:00:11;;;;;;;2.35;1.33;;;;;;;;;;4880216;29;20061;-21
2021/01/06 09:02:43;;;;;;;0.35;0.20;;;;;;;;;;4880332;29;20051;-20
2021/01/06 09:05:32;;;;;;;0.30;0.22;;;;;;;;;;4897173;29;20115;-22
2021/01/06 09:08:00;;;;;;;0.77;0.47;;;;;;;;;;4870038;29;20118;-21
2021/01/06 09:10:35;;;;;;;0.15;0.15;;;;;;;;;;4880203;29;20024;-22
2021/01/06 09:13:13;;;;;;;0.20;0.10;;;;;;;;;;4897300;29;20064;-21
2021/01/06 09:15:46;;;;;;;0.47;0.30;;;;;;;;;;4897029;29;20426;-22
2021/01/06 09:18:38;;;;;;;0.60;0.30;;;;;;;;;;4556773;29;9999763;-25
2021/01/06 09:21:09;;;;;;;0.55;0.30;;;;;;;;;;4890727;29;20064;-22
2021/01/06 09:23:35;;;;;;;0.10;0.10;;;;;;;;;;4876157;29;20108;-24
2021/01/06 09:26:02;;;;;;;1.05;0.70;;;;;;;;;;4893372;29;20119;-25
2021/01/06 09:28:30;;;;;;;0.57;0.57;;;;;;;;;;4892819;29;20524;-24
2021/01/06 09:30:57;;;;;;;1.58;1.48;;;;;;;;;;4861022;29;20032;-25
2021/01/06 09:33:27;;;;;;;1.55;0.70;;;;;;;;;;4893709;29;20040;-23
2021/01/06 09:35:53;;;;;;;3.83;1.38;;;;;;;;;;4893511;29;20048;-23
2021/01/06 09:38:24;;;;;;;3.70;1.30;;;;;;;;;;4894885;29;20068;-23
2021/01/06 09:40:51;;;;;;;3.72;1.33;;;;;;;;;;4897235;29;20044;-23
2021/01/06 09:43:20;;;;;;;6.90;1.33;;;;;;;;;;4896609;29;20108;-24
2021/01/06 09:45:45;;;;;;;1.25;0.55;;;;;;;;;;4897129;29;20065;-23
2021/01/06 09:48:11;;;;;;;1.27;1.05;;;;;;;;;;4880497;29;20444;-24
2021/01/06 09:50:40;;;;;;;2.45;1.95;;;;;;;;;;4880029;29;20508;-24
2021/01/06 09:53:08;;;;;;;1.45;1.15;;;;;;;;;;4897118;29;20123;-24
2021/01/06 09:55:34;;;;;;;0.85;0.75;;;;;;;;;;4899018;29;20395;-24
2021/01/06 09:58:02;;;;;;;2.35;1.40;;;;;;;;;;4915872;29;20032;-23
2021/01/06 10:00:41;;;;;;;2.22;0.70;;;;;;;;;;4915514;29;20035;-23
2021/01/06 10:03:07;;;;;;;1.88;0.82;;;;;;;;;;4915377;29;20060;-23
2021/01/06 10:05:47;;;;;;;2.63;0.85;;;;;;;;;;4915009;29;20074;-23
2021/01/06 10:08:22;;;;;;;2.47;1.10;;;;;;;;;;4915018;29;20043;-23
2021/01/06 10:10:49;;;;;;;1.75;1.40;;;;;;;;;;4915378;29;20040;-24
2021/01/06 10:13:15;;;;;;;2.72;1.13;;;;;;;;;;4897805;29;20036;-23
2021/01/06 10:15:49;;;;;;;1.77;1.00;;;;;;;;;;4915464;29;20040;-22
2021/01/06 10:18:33;;;;;;;1.98;0.93;;;;;;;;;;4912055;29;20092;-22
2021/01/06 10:21:01;;;;;;;4.72;1.30;;;;;;;;;;4895954;29;20048;-22
2021/01/06 10:23:46;;;;;;;1.92;1.30;;;;;;;;;;4879181;29;20168;-23
2021/01/06 10:26:24;;;;;;;1.45;1.02;;;;;;;;;;4895858;29;20096;-23
2021/01/06 10:28:50;;;;;;;1.38;0.70;;;;;;;;;;4896001;29;20089;-22
2021/01/06 10:31:21;;;;;;;2.15;0.95;;;;;;;;;;4895753;29;20028;-22
2021/01/06 10:34:04;;;;;;;1.92;0.98;;;;;;;;;;4879225;29;20033;-22
2021/01/06 10:36:54;;;;;;;0.82;0.75;;;;;;;;;;4896369;29;20044;-22
2021/01/06 10:39:34;;;;;;;3.80;1.35;;;;;;;;;;4895894;29;20419;-23
2021/01/06 10:42:00;;;;;;;2.95;1.15;;;;;;;;;;4878546;29;20669;-23
2021/01/06 10:44:27;;;;;;;2.60;1.17;;;;;;;;;;4895846;29;20384;-22
2021/01/06 10:46:53;;;;;;;2.80;1.00;;;;;;;;;;4895464;29;20044;-22
2021/01/06 10:49:19;;;;;;;5.57;0.68;;;;;;;;;;4894188;29;20031;-22
2021/01/06 10:51:54;;;;;;;3.58;1.20;;;;;;;;;;4895481;29;20121;-23
2021/01/06 10:54:40;;;;;;;4.47;1.05;;;;;;;;;;4893303;29;20040;-23
2021/01/06 10:57:15;;;;;;;8.27;1.35;;;;;;;;;;4894851;29;20079;-22
2021/01/06 10:59:59;;;;;;;2.25;1.40;;;;;;;;;;4895233;29;20088;-23
2021/01/06 11:02:34;;;;;;;1.35;0.93;;;;;;;;;;4895402;29;20096;-23
2021/01/06 11:05:10;;;;;;;2.25;1.30;;;;;;;;;;4895318;29;20047;-23
2021/01/06 11:07:36;;;;;;;2.65;1.00;;;;;;;;;;4894928;29;20044;-22
2021/01/06 11:10:01;;;;;;;1.60;0.90;;;;;;;;;;4895382;29;20650;-22
2021/01/06 11:12:37;;;;;;;2.50;1.10;;;;;;;;;;4895127;29;20025;-22
2021/01/06 11:15:03;;;;;;;3.65;1.25;;;;;;;;;;4895018;29;20499;-22
2021/01/06 11:17:28;;;;;;;1.90;1.13;;;;;;;;;;4895031;29;20157;-22
2021/01/06 11:19:54;;;;;;;1.60;1.10;;;;;;;;;;4894928;29;20056;-22
2021/01/06 11:22:38;;;;;;;2.25;1.25;;;;;;;;;;4878136;29;20173;-23
2021/01/06 11:25:22;;;;;;;1.55;0.93;;;;;;;;;;4878441;29;20048;-23
2021/01/06 11:28:08;;;;;;;1.80;1.40;;;;;;;;;;4894790;29;20499;-22
2021/01/06 11:30:41;;;;;;;3.70;1.23;;;;;;;;;;4894716;29;20115;-22
2021/01/06 11:33:15;;;;;;;3.83;1.13;;;;;;;;;;4894810;29;20108;-23
2021/01/06 11:35:59;;;;;;;2.60;1.85;;;;;;;;;;4894598;29;20124;-22
2021/01/06 11:38:30;;;;;;;2.53;1.10;;;;;;;;;;4894477;29;20036;-22
2021/01/06 11:40:56;;;;;;;2.92;1.45;;;;;;;;;;4894530;29;20052;-23
2021/01/06 11:43:35;;;;;;;2.42;1.30;;;;;;;;;;4894312;29;20104;-22
2021/01/06 11:46:10;;;;;;;2.33;1.20;;;;;;;;;;4862347;29;20040;-22
2021/01/06 11:48:37;;;;;;;3.40;1.50;;;;;;;;;;4894573;29;20041;-22
2021/01/06 11:51:20;;;;;;;2.55;1.52;;;;;;;;;;4877418;29;20056;-23
2021/01/06 11:53:46;;;;;;;3.33;1.10;;;;;;;;;;4894191;29;20063;-22
2021/01/06 11:56:28;;;;;;;2.20;1.20;;;;;;;;;;4893725;29;20376;-22
2021/01/06 11:59:12;;;;;;;1.63;1.10;;;;;;;;;;4877302;29;20064;-22
2021/01/06 12:01:44;;;;;;;4.53;1.10;;;;;;;;;;4894002;29;20044;-27
2021/01/06 12:04:09;;;;;;;4.20;1.60;;;;;;;;;;4877418;29;20482;-22
2021/01/06 12:06:38;;;;;;;2.92;1.30;;;;;;;;;;4893909;29;20048;-22
2021/01/06 12:09:16;;;;;;;2.50;1.10;;;;;;;;;;4894214;29;20496;-23
2021/01/06 12:12:00;;;;;;;2.00;1.08;;;;;;;;;;4894349;29;20111;-22
2021/01/06 12:14:35;;;;;;;3.17;1.30;;;;;;;;;;4872699;29;20043;-22
2021/01/06 12:17:21;;;;;;;2.50;1.50;;;;;;;;;;4876779;29;20043;-21
2021/01/06 12:20:03;;;;;;;3.53;1.52;;;;;;;;;;4893696;29;20032;-22
2021/01/06 12:22:29;;;;;;;3.22;1.20;;;;;;;;;;4893817;29;20086;-22
2021/01/06 12:25:33;;;;;;;3.75;1.63;;;;;;;;;;4893664;29;20064;-21
2021/01/06 12:28:06;;;;;;;2.05;1.17;;;;;;;;;;4853120;29;20053;-22
2021/01/06 12:30:57;;;;;;;2.25;1.25;;;;;;;;;;4853460;29;20169;-22
2021/01/06 12:33:26;;;;;;;3.13;1.95;;;;;;;;;;4873225;29;20037;-22
2021/01/06 12:36:03;;;;;;;3.35;1.77;;;;;;;;;;4893790;29;20025;-22
2021/01/06 12:38:28;;;;;;;3.42;1.85;;;;;;;;;;4893675;29;20387;-22
2021/01/06 12:41:06;;;;;;;4.45;1.58;;;;;;;;;;4893653;29;20047;-23
2021/01/06 12:44:01;;;;;;;3.40;1.75;;;;;;;;;;4893159;29;20543;-21
2021/01/06 12:46:26;;;;;;;2.30;1.40;;;;;;;;;;4868238;29;20104;-22
2021/01/06 12:49:10;;;;;;;3.97;2.50;;;;;;;;;;4893541;29;20035;-22
2021/01/06 12:51:38;;;;;;;2.70;1.90;;;;;;;;;;4893927;29;20462;-22
2021/01/06 12:54:06;;;;;;;4.65;2.08;;;;;;;;;;4875902;29;20040;-23
2021/01/06 12:56:43;;;;;;;2.53;1.60;;;;;;;;;;4893567;29;20029;-22
2021/01/06 12:59:14;;;;;;;2.90;1.65;;;;;;;;;;4876727;29;20381;-20
2021/01/06 13:02:00;;;;;;;2.17;1.42;;;;;;;;;;4893383;29;20041;-22
2021/01/06 13:04:34;;;;;;;2.53;1.65;;;;;;;;;;4893994;29;20088;-22
2021/01/06 13:07:12;;;;;;;13.60;4.97;;;;;;;;;;4893768;29;20079;-22
2021/01/06 13:09:40;;;;;;;3.83;1.60;;;;;;;;;;4893779;29;20488;-21
2021/01/06 13:12:09;;;;;;;4.60;1.65;;;;;;;;;;4893065;29;20044;-22
2021/01/06 13:14:34;;;;;;;4.93;1.88;;;;;;;;;;4896002;29;20041;-21
2021/01/06 13:17:19;;;;;;;3.83;1.90;;;;;;;;;;4897519;29;20104;-22
2021/01/06 13:19:54;;;;;;;7.65;2.58;;;;;;;;;;4851638;29;20036;-21
2021/01/06 13:22:23;;;;;;;3.88;2.00;;;;;;;;;;4896598;29;20040;-22
2021/01/06 13:25:09;;;;;;;5.90;2.45;;;;;;;;;;4896883;29;20028;-22
2021/01/06 13:27:37;;;;;;;3.85;2.00;;;;;;;;;;4878979;29;20044;-23
2021/01/06 13:30:13;;;;;;;5.32;2.78;;;;;;;;;;4896196;29;20043;-23
2021/01/06 13:32:44;;;;;;;3.80;1.92;;;;;;;;;;4896886;29;20033;-22
2021/01/06 13:35:33;;;;;;;3.90;2.53;;;;;;;;;;4864386;29;20537;-21
2021/01/06 13:38:21;;;;;;;5.50;2.22;;;;;;;;;;4886855;29;20038;-22
2021/01/06 13:40:48;;;;;;;4.32;2.15;;;;;;;;;;4891254;29;20049;-23
2021/01/06 13:43:36;;;;;;;4.97;1.73;;;;;;;;;;4896653;29;20029;-23
2021/01/06 13:46:23;;;;;;;5.05;1.63;;;;;;;;;;4874297;29;20047;-22
2021/01/06 13:49:02;;;;;;;14.77;8.20;;;;;;;;;;4879988;29;20029;-22
2021/01/06 13:51:35;;;;;;;3.45;2.33;;;;;;;;;;4896458;29;20036;-27
2021/01/06 13:54:06;;;;;;;1.25;0.82;;;;;;;;;;4896747;29;20031;-23
2021/01/06 13:56:41;;;;;;;1.75;0.98;;;;;;;;;;4896689;29;20080;-23
2021/01/06 13:59:30;;;;;;;0.90;0.80;;;;;;;;;;4896429;29;20108;-23
2021/01/06 14:02:01;;;;;;;0.77;0.65;;;;;;;;;;4896777;29;20110;-23
2021/01/06 14:04:27;;;;;;;0.85;0.70;;;;;;;;;;4896219;29;20039;-23
2021/01/06 14:06:58;;;;;;;0.85;0.57;;;;;;;;;;4895987;29;20036;-22
2021/01/06 14:09:39;;;;;;;1.40;0.65;;;;;;;;;;4896260;29;20131;-23
2021/01/06 14:12:23;;;;;;;1.38;0.82;;;;;;;;;;4896246;29;20415;-23
2021/01/06 14:15:04;;;;;;;2.35;0.90;;;;;;;;;;4896376;29;20047;-23
2021/01/06 14:17:48;;;;;;;2.30;1.52;;;;;;;;;;4878914;29;20047;-22
2021/01/06 14:20:20;;;;;;;1.00;0.90;;;;;;;;;;4895275;29;20119;-23
2021/01/06 14:22:50;;;;;;;1.80;0.90;;;;;;;;;;4896152;29;20156;-27
2021/01/06 14:25:24;;;;;;;1.20;1.10;;;;;;;;;;4895827;29;20111;-21
2021/01/06 14:28:00;;;;;;;2.20;1.48;;;;;;;;;;4895829;29;20788;-23
2021/01/06 14:30:46;;;;;;;6.07;3.13;;;;;;;;;;4895494;29;20033;-22
2021/01/06 14:33:20;;;;;;;3.95;1.52;;;;;;;;;;4878408;29;20076;-22
2021/01/06 14:36:01;;;;;;;2.10;1.67;;;;;;;;;;4895560;29;20052;-21
2021/01/06 14:38:38;;;;;;;1.58;1.40;;;;;;;;;;4895868;29;20029;-23
2021/01/06 14:41:23;;;;;;;1.67;1.38;;;;;;;;;;4878949;29;20048;-22
2021/01/06 14:43:53;;;;;;;1.95;1.55;;;;;;;;;;4895704;29;20036;-22
2021/01/06 14:46:28;;;;;;;1.83;1.15;;;;;;;;;;4879090;29;20032;-22
2021/01/06 14:49:09;;;;;;;1.98;1.20;;;;;;;;;;4878986;29;20040;-22
2021/01/06 14:51:44;;;;;;;2.97;1.10;;;;;;;;;;4895819;29;20401;-22
2021/01/06 14:54:28;;;;;;;1.60;1.17;;;;;;;;;;4895480;29;20483;-22
2021/01/06 14:56:56;;;;;;;2.50;1.27;;;;;;;;;;4895126;29;20095;-23
2021/01/06 14:59:27;;;;;;;1.90;1.20;;;;;;;;;;4895853;29;20131;-23
2021/01/06 15:01:58;;;;;;;2.03;1.42;;;;;;;;;;4895550;29;20068;-22
2021/01/06 15:04:24;;;;;;;1.58;1.10;;;;;;;;;;4878434;29;20044;-23
2021/01/06 15:06:58;;;;;;;2.55;1.33;;;;;;;;;;4895367;29;20048;-23
2021/01/06 15:09:42;;;;;;;2.83;0.90;;;;;;;;;;4880040;29;20040;-22
2021/01/06 15:12:14;;;;;;;2.03;1.58;;;;;;;;;;4914577;29;20087;-22